This is the latest recevied weather packets stored in our database for station/object HB9UQS-13. If no packets are shown the sender has not sent any weather packets the latest 10 day(s).
| Time | Temp. | Humidity | Pressure | Rain* | Wind** | Luminosity | Snow |
|---|---|---|---|---|---|---|---|
| 1777391021 | 16.67° C | 58% | 930 hPa | 0 mm | - | 0 W/m² | - |
| 1777389221 | 16.67° C | 56% | 930 hPa | 0 mm | - | 0 W/m² | - |
| 1777387421 | 15.56° C | 59% | 929.8 hPa | 0 mm | - | 0 W/m² | - |
| 1777385621 | 15.56° C | 58% | 929.9 hPa | 0 mm | - | 0 W/m² | - |
| 1777383821 | 16.11° C | 53% | 930.3 hPa | 0 mm | - | 0 W/m² | - |
| 1777382021 | 15.56° C | 53% | 930.3 hPa | 0 mm | - | 0 W/m² | - |
| 1777380221 | 16.11° C | 53% | 930.3 hPa | 0 mm | - | 0 W/m² | - |
| 1777378422 | 16.11° C | 51% | 930.3 hPa | 0 mm | - | 0 W/m² | - |
| 1777376621 | 16.11° C | 55% | 930.2 hPa | 0 mm | - | 0 W/m² | - |
| 1777374821 | 16.11° C | 55% | 930.4 hPa | 0 mm | - | 0 W/m² | - |
| 1777373022 | 15.56° C | 55% | 930.3 hPa | 0 mm | - | 0 W/m² | - |
| 1777371226 | 15.56° C | 56% | 930.5 hPa | 0 mm | - | 0 W/m² | - |
| 1777369421 | 16.11° C | 58% | 930.4 hPa | 0 mm | - | 0 W/m² | - |
| 1777367621 | 16.67° C | 53% | 930.3 hPa | 0 mm | - | 0 W/m² | - |
| 1777365821 | 16.11° C | 52% | 930.2 hPa | 0 mm | - | 0 W/m² | - |
| 1777364021 | 14.44° C | 54% | 930.3 hPa | 0 mm | - | 0 W/m² | - |
| 1777362221 | 13.33° C | 58% | 930.1 hPa | 0 mm | - | 0 W/m² | - |
| 1777360421 | 12.78° C | 60% | 930.2 hPa | 0 mm | - | 0 W/m² | - |
| 1777358621 | 11.67° C | 66% | 930.3 hPa | 0 mm | - | 0 W/m² | - |
| 1777356821 | 10.56° C | 74% | 930.2 hPa | 0 mm | - | 0 W/m² | - |
| 1777355021 | 7.22° C | 83% | 930.2 hPa | 0 mm | - | 0 W/m² | - |
| 1777353221 | 6.11° C | 86% | 930 hPa | 0 mm | - | 0 W/m² | - |
| 1777351421 | 5.56° C | 87% | 930.1 hPa | 0 mm | - | 0 W/m² | - |
| 1777349621 | 5.56° C | 85% | 930 hPa | 0 mm | - | 0 W/m² | - |
| 1777347821 | 5.56° C | 82% | 930.2 hPa | 0 mm | - | 0 W/m² | - |
* Rain latest hour (hover to see other rain measurements)
** Current wind speed in m/s (hover to see current wind gust speed)